createdAt,value
2022-11-25T00:00:21.792Z,8.28
2022-11-25T00:01:21.886Z,8.29
2022-11-25T00:02:21.881Z,8.29
2022-11-25T00:03:21.782Z,8.30
2022-11-25T00:04:21.732Z,8.29
2022-11-25T00:05:21.747Z,8.29
2022-11-25T00:06:22.297Z,8.28
2022-11-25T00:07:21.840Z,8.29
2022-11-25T00:08:21.728Z,8.30
2022-11-25T00:09:21.851Z,8.32
2022-11-25T00:10:21.700Z,8.33
2022-11-25T00:11:21.861Z,8.35
2022-11-25T00:12:21.757Z,8.37
2022-11-25T00:13:21.785Z,8.40
2022-11-25T00:14:21.788Z,8.44
2022-11-25T00:15:21.762Z,8.48
2022-11-25T00:16:21.905Z,8.48
2022-11-25T00:17:21.950Z,8.47
2022-11-25T00:18:21.973Z,8.47
2022-11-25T00:19:21.787Z,8.48
2022-11-25T00:20:21.604Z,8.50
2022-11-25T00:21:21.696Z,8.53
2022-11-25T00:22:21.571Z,8.54
2022-11-25T00:23:21.734Z,8.54
2022-11-25T00:24:21.712Z,8.54
2022-11-25T00:25:21.544Z,8.53
2022-11-25T00:26:21.776Z,8.54
2022-11-25T00:27:21.825Z,8.55
2022-11-25T00:28:21.682Z,8.54
2022-11-25T00:29:21.678Z,8.54
2022-11-25T00:30:21.755Z,8.51
2022-11-25T00:31:21.872Z,8.51
2022-11-25T00:32:21.691Z,8.50
2022-11-25T00:33:21.515Z,8.55
2022-11-25T00:34:21.845Z,8.63
2022-11-25T00:35:21.594Z,8.62
2022-11-25T00:36:21.563Z,8.63
2022-11-25T00:37:21.514Z,8.63
2022-11-25T00:38:21.413Z,8.65
2022-11-25T00:39:21.517Z,8.68
2022-11-25T00:40:21.490Z,8.69
2022-11-25T00:41:21.481Z,8.71
2022-11-25T00:42:21.419Z,8.73
2022-11-25T00:43:21.602Z,8.78
2022-11-25T00:44:21.480Z,8.81
2022-11-25T00:45:21.359Z,8.78
2022-11-25T00:46:21.413Z,8.78
2022-11-25T00:47:21.333Z,8.79
2022-11-25T00:48:21.371Z,8.76
2022-11-25T00:49:21.292Z,8.76
2022-11-25T00:50:21.286Z,8.78
2022-11-25T00:51:21.261Z,8.76
2022-11-25T00:52:21.292Z,8.76
2022-11-25T00:53:21.309Z,8.78
2022-11-25T00:54:21.259Z,8.78
2022-11-25T00:55:21.666Z,8.73
2022-11-25T00:56:21.219Z,8.72
2022-11-25T00:57:21.217Z,8.71
2022-11-25T00:58:21.211Z,8.68
2022-11-25T00:59:21.294Z,8.66
2022-11-25T01:00:21.180Z,8.71
2022-11-25T01:01:21.473Z,8.71
2022-11-25T01:02:21.339Z,8.69
2022-11-25T01:03:21.542Z,8.66
2022-11-25T01:04:21.358Z,8.65
2022-11-25T01:05:21.140Z,8.63
2022-11-25T01:06:21.383Z,8.62
2022-11-25T01:07:21.199Z,8.65
2022-11-25T01:08:21.101Z,8.68
2022-11-25T01:09:21.125Z,8.69
2022-11-25T01:10:21.126Z,8.68
2022-11-25T01:11:21.145Z,8.66
2022-11-25T01:12:21.125Z,8.65
2022-11-25T01:13:21.048Z,8.62
2022-11-25T01:14:21.128Z,8.62
2022-11-25T01:15:21.035Z,8.58
2022-11-25T01:16:21.238Z,8.60
2022-11-25T01:17:21.018Z,8.60
2022-11-25T01:18:21.422Z,8.63
2022-11-25T01:19:21.084Z,8.65
2022-11-25T01:20:20.993Z,8.66
2022-11-25T01:21:20.996Z,8.68
2022-11-25T01:22:20.965Z,8.68
2022-11-25T01:23:21.160Z,8.69
2022-11-25T01:24:20.956Z,8.68
2022-11-25T01:25:20.957Z,8.65
2022-11-25T01:26:20.959Z,8.63
2022-11-25T01:27:21.001Z,8.62
2022-11-25T01:28:21.044Z,8.63
2022-11-25T01:29:20.901Z,8.62
2022-11-25T01:30:20.937Z,8.58
2022-11-25T01:31:21.004Z,8.55
2022-11-25T01:32:20.911Z,8.55
2022-11-25T01:33:20.872Z,8.54
2022-11-25T01:34:21.010Z,8.55
2022-11-25T01:35:20.831Z,8.55
2022-11-25T01:36:20.846Z,8.57
2022-11-25T01:37:20.846Z,8.60
2022-11-25T01:38:20.837Z,8.60
2022-11-25T01:39:21.184Z,8.65
2022-11-25T01:40:20.820Z,8.68
2022-11-25T01:41:20.812Z,8.71
2022-11-25T01:42:20.808Z,8.72
2022-11-25T01:43:20.788Z,8.71
2022-11-25T01:44:20.931Z,8.75
2022-11-25T01:45:20.932Z,8.76
2022-11-25T01:46:20.865Z,8.78
2022-11-25T01:47:20.714Z,8.79
2022-11-25T01:48:20.723Z,8.79
2022-11-25T01:49:20.720Z,8.83
2022-11-25T01:50:20.715Z,8.83
2022-11-25T01:51:20.863Z,8.91
2022-11-25T01:52:20.680Z,8.93
2022-11-25T01:53:20.755Z,8.94
2022-11-25T01:54:20.705Z,8.96
2022-11-25T01:55:20.631Z,8.97
2022-11-25T01:56:20.632Z,8.97
2022-11-25T01:57:20.653Z,8.96
2022-11-25T01:58:20.933Z,8.97
2022-11-25T01:59:20.736Z,9.02
2022-11-25T02:00:21.123Z,9.05
2022-11-25T02:01:20.659Z,9.05
2022-11-25T02:02:20.680Z,9.06
2022-11-25T02:03:20.598Z,9.10
2022-11-25T02:04:20.545Z,9.12
2022-11-25T02:05:20.533Z,9.15
2022-11-25T02:06:20.578Z,9.15
2022-11-25T02:07:20.615Z,9.18
2022-11-25T02:08:20.511Z,9.21
2022-11-25T02:09:20.493Z,9.23
2022-11-25T02:10:20.545Z,9.25
2022-11-25T02:11:20.472Z,9.24
2022-11-25T02:12:20.510Z,9.25
2022-11-25T02:13:20.683Z,9.23
2022-11-25T02:14:20.689Z,9.23
2022-11-25T02:15:20.432Z,9.23
2022-11-25T02:16:20.542Z,9.20
2022-11-25T02:17:20.763Z,9.20
2022-11-25T02:18:20.486Z,9.24
2022-11-25T02:19:20.575Z,9.25
2022-11-25T02:20:20.356Z,9.27
2022-11-25T02:21:20.572Z,9.25
2022-11-25T02:22:20.582Z,9.24
2022-11-25T02:23:20.682Z,9.24
2022-11-25T02:24:20.442Z,9.25
2022-11-25T02:25:20.399Z,9.27
2022-11-25T02:26:20.519Z,9.27
2022-11-25T02:27:20.312Z,9.30
2022-11-25T02:28:20.502Z,9.35
2022-11-25T02:29:20.643Z,9.40
2022-11-25T02:30:20.330Z,9.46
2022-11-25T02:31:20.708Z,9.52
2022-11-25T02:32:20.615Z,9.56
2022-11-25T02:33:20.253Z,9.57
2022-11-25T02:34:20.266Z,9.58
2022-11-25T02:35:20.455Z,9.60
2022-11-25T02:36:20.272Z,9.63
2022-11-25T02:37:20.255Z,9.64
2022-11-25T02:38:20.415Z,9.63
2022-11-25T02:39:20.166Z,9.60
2022-11-25T02:40:20.232Z,9.63
2022-11-25T02:41:20.159Z,9.63
2022-11-25T02:42:20.219Z,9.63
2022-11-25T02:43:20.191Z,9.64
2022-11-25T02:44:20.339Z,9.63
2022-11-25T02:45:20.140Z,9.66
2022-11-25T02:46:22.480Z,9.66
2022-11-25T02:47:20.289Z,9.61
2022-11-25T02:48:20.159Z,9.63
2022-11-25T02:49:20.158Z,9.61
2022-11-25T02:50:20.112Z,9.58
2022-11-25T02:51:20.094Z,9.56
2022-11-25T02:52:20.247Z,9.52
2022-11-25T02:53:20.269Z,9.50
2022-11-25T02:54:20.090Z,9.48
2022-11-25T02:55:20.051Z,9.46
2022-11-25T02:56:20.186Z,9.45
2022-11-25T02:57:20.010Z,9.43
2022-11-25T02:58:20.104Z,9.42
2022-11-25T02:59:20.243Z,9.42
2022-11-25T03:00:20.000Z,9.42
2022-11-25T03:01:20.096Z,9.40
2022-11-25T03:02:20.000Z,9.42
2022-11-25T03:03:19.957Z,9.43
2022-11-25T03:04:20.088Z,9.48
2022-11-25T03:05:19.986Z,9.49
2022-11-25T03:06:19.974Z,9.50
2022-11-25T03:07:19.989Z,9.49
2022-11-25T03:08:20.221Z,9.45
2022-11-25T03:09:20.086Z,9.46
2022-11-25T03:10:19.914Z,9.45
2022-11-25T03:11:20.008Z,9.43
2022-11-25T03:12:19.907Z,9.35
2022-11-25T03:13:19.893Z,9.32
2022-11-25T03:14:20.128Z,9.28
2022-11-25T03:15:19.930Z,9.25
2022-11-25T03:16:20.024Z,9.25
2022-11-25T03:17:19.879Z,9.21
2022-11-25T03:18:20.024Z,9.15
2022-11-25T03:19:19.968Z,9.13
2022-11-25T03:20:19.816Z,9.15
2022-11-25T03:21:19.819Z,9.13
2022-11-25T03:22:20.136Z,9.10
2022-11-25T03:23:19.944Z,9.09
2022-11-25T03:24:19.756Z,9.05
2022-11-25T03:25:19.734Z,9.04
2022-11-25T03:26:19.823Z,9.04
2022-11-25T03:27:19.749Z,9.04
2022-11-25T03:28:19.706Z,9.05
2022-11-25T03:29:19.692Z,9.04
2022-11-25T03:30:19.724Z,9.02
2022-11-25T03:31:20.021Z,9.05
2022-11-25T03:32:19.992Z,9.05
2022-11-25T03:33:19.695Z,9.04
2022-11-25T03:34:19.808Z,9.04
2022-11-25T03:35:19.800Z,9.04
2022-11-25T03:36:19.847Z,9.02
2022-11-25T03:37:19.842Z,9.04
2022-11-25T03:38:19.819Z,9.04
2022-11-25T03:39:19.902Z,9.04
2022-11-25T03:40:19.611Z,9.04
2022-11-25T03:41:19.867Z,9.02
2022-11-25T03:42:19.592Z,9.02
2022-11-25T03:43:19.722Z,9.04
2022-11-25T03:44:19.599Z,9.04
2022-11-25T03:45:19.624Z,9.02
2022-11-25T03:46:19.570Z,9.01
2022-11-25T03:47:19.592Z,9.01
2022-11-25T03:48:19.541Z,9.01
2022-11-25T03:49:19.543Z,8.99
2022-11-25T03:50:19.647Z,9.01
2022-11-25T03:51:19.628Z,8.99
2022-11-25T03:52:19.430Z,9.01
2022-11-25T03:53:19.991Z,9.02
2022-11-25T03:54:19.489Z,9.04
2022-11-25T03:55:19.473Z,9.04
2022-11-25T03:56:19.445Z,9.04
2022-11-25T03:57:19.545Z,9.04
2022-11-25T03:58:19.434Z,9.05
2022-11-25T03:59:19.451Z,9.02
2022-11-25T04:00:19.519Z,9.02
2022-11-25T04:01:19.456Z,9.04
2022-11-25T04:02:19.601Z,9.04
2022-11-25T04:03:19.604Z,9.02
2022-11-25T04:04:19.523Z,9.01
2022-11-25T04:05:19.400Z,9.02
2022-11-25T04:06:19.953Z,8.99
2022-11-25T04:07:19.602Z,8.99
2022-11-25T04:08:19.579Z,8.96
2022-11-25T04:09:19.310Z,8.97
2022-11-25T04:10:19.305Z,8.94
2022-11-25T04:11:19.373Z,8.94
2022-11-25T04:12:19.270Z,8.96
2022-11-25T04:13:19.274Z,8.93
2022-11-25T04:14:19.330Z,8.94
2022-11-25T04:15:19.241Z,8.94
2022-11-25T04:16:19.216Z,8.94
2022-11-25T04:17:19.223Z,8.94
2022-11-25T04:18:19.260Z,8.96
2022-11-25T04:19:19.261Z,8.94
2022-11-25T04:20:19.195Z,8.96
2022-11-25T04:21:19.170Z,8.94
2022-11-25T04:22:19.159Z,8.93
2022-11-25T04:23:19.144Z,8.93
2022-11-25T04:24:19.197Z,8.91
2022-11-25T04:25:19.429Z,8.91
2022-11-25T04:26:19.172Z,8.90
2022-11-25T04:27:20.424Z,8.88
2022-11-25T04:28:19.237Z,8.88
2022-11-25T04:29:19.300Z,8.87
2022-11-25T04:30:19.127Z,8.87
2022-11-25T04:31:19.395Z,8.86
2022-11-25T04:32:19.147Z,8.84
2022-11-25T04:33:19.060Z,8.86
2022-11-25T04:34:19.029Z,8.79
2022-11-25T04:35:19.021Z,8.83
2022-11-25T04:36:19.103Z,8.81
2022-11-25T04:37:19.015Z,8.81
2022-11-25T04:38:19.021Z,8.81
2022-11-25T04:39:18.997Z,8.79
2022-11-25T04:40:19.016Z,8.79
2022-11-25T04:41:18.995Z,8.81
2022-11-25T04:42:19.119Z,8.81
2022-11-25T04:43:19.005Z,8.81
2022-11-25T04:44:19.520Z,8.81
2022-11-25T04:45:23.589Z,8.79
2022-11-25T04:46:19.015Z,8.81
2022-11-25T04:47:18.964Z,8.83
2022-11-25T04:48:19.062Z,8.79
2022-11-25T04:49:18.997Z,8.79
2022-11-25T04:50:19.144Z,8.78
2022-11-25T04:51:19.083Z,8.79
2022-11-25T04:52:18.915Z,8.76
2022-11-25T04:53:18.885Z,8.78
2022-11-25T04:54:19.017Z,8.76
2022-11-25T04:55:19.155Z,8.78
2022-11-25T04:56:18.864Z,8.76
2022-11-25T04:57:18.787Z,8.73
2022-11-25T04:58:18.861Z,8.75
2022-11-25T04:59:18.826Z,8.72
2022-11-25T05:00:18.811Z,8.72
2022-11-25T05:01:18.786Z,8.71
2022-11-25T05:02:19.018Z,8.71
2022-11-25T05:03:18.810Z,8.69
2022-11-25T05:04:18.996Z,8.69
2022-11-25T05:05:18.913Z,8.66
2022-11-25T05:06:19.372Z,8.66
2022-11-25T05:07:18.795Z,8.65
2022-11-25T05:08:19.049Z,8.65
2022-11-25T05:09:18.706Z,8.65
2022-11-25T05:10:19.418Z,8.63
2022-11-25T05:11:19.045Z,8.63
2022-11-25T05:12:19.531Z,8.63
2022-11-25T05:13:18.692Z,8.62
2022-11-25T05:14:18.676Z,8.62
2022-11-25T05:15:18.836Z,8.60
2022-11-25T05:16:18.754Z,8.60
2022-11-25T05:17:18.660Z,8.60
2022-11-25T05:18:18.724Z,8.58
2022-11-25T05:19:18.622Z,8.58
2022-11-25T05:20:18.603Z,8.57
2022-11-25T05:21:18.561Z,8.57
2022-11-25T05:22:18.735Z,8.55
2022-11-25T05:23:18.719Z,8.57
2022-11-25T05:24:18.561Z,8.57
2022-11-25T05:25:18.729Z,8.57
2022-11-25T05:26:18.587Z,8.58
2022-11-25T05:27:18.711Z,8.58
2022-11-25T05:28:18.561Z,8.57
2022-11-25T05:29:18.599Z,8.57
2022-11-25T05:30:18.738Z,8.57
2022-11-25T05:31:18.657Z,8.57
2022-11-25T05:32:18.612Z,8.57
2022-11-25T05:33:18.679Z,8.58
2022-11-25T05:34:18.657Z,8.57
2022-11-25T05:35:18.581Z,8.57
2022-11-25T05:36:18.716Z,8.57
2022-11-25T05:37:22.894Z,8.55
2022-11-25T05:38:18.554Z,8.55
2022-11-25T05:39:18.593Z,8.55
2022-11-25T05:40:18.606Z,8.57
2022-11-25T05:41:18.415Z,8.55
2022-11-25T05:42:18.438Z,8.55
2022-11-25T05:43:18.367Z,8.54
2022-11-25T05:44:22.646Z,8.54
2022-11-25T05:45:18.526Z,8.54
2022-11-25T05:46:18.432Z,8.54
2022-11-25T05:47:18.452Z,8.53
2022-11-25T05:48:18.472Z,8.53
2022-11-25T05:49:18.313Z,8.50
2022-11-25T05:50:18.532Z,8.50
2022-11-25T05:51:18.486Z,8.48
2022-11-25T05:52:18.505Z,8.47
2022-11-25T05:53:18.453Z,8.48
2022-11-25T05:54:18.321Z,8.48
2022-11-25T05:55:18.314Z,8.47
2022-11-25T05:56:18.321Z,8.47
2022-11-25T05:57:18.426Z,8.47
2022-11-25T05:58:18.225Z,8.45
2022-11-25T05:59:18.270Z,8.45
2022-11-25T06:00:21.022Z,8.44
2022-11-25T06:01:18.409Z,8.44
2022-11-25T06:02:18.261Z,8.47
2022-11-25T06:03:18.248Z,8.47
2022-11-25T06:04:18.190Z,8.48
2022-11-25T06:05:18.444Z,8.47
2022-11-25T06:06:18.342Z,8.48
2022-11-25T06:07:18.187Z,8.45
2022-11-25T06:08:18.092Z,8.47
2022-11-25T06:09:18.091Z,8.47
2022-11-25T06:10:18.194Z,8.47
2022-11-25T06:11:18.125Z,8.47
2022-11-25T06:12:18.666Z,8.47
2022-11-25T06:13:18.238Z,8.45
2022-11-25T06:14:18.056Z,8.47
2022-11-25T06:15:18.354Z,8.47
2022-11-25T06:16:18.078Z,8.47
2022-11-25T06:17:18.046Z,8.48
2022-11-25T06:18:18.230Z,8.50
2022-11-25T06:19:18.251Z,8.48
2022-11-25T06:20:18.190Z,8.47
2022-11-25T06:21:18.026Z,8.47
2022-11-25T06:22:18.131Z,8.45
2022-11-25T06:23:18.104Z,8.45
2022-11-25T06:24:18.022Z,8.47
2022-11-25T06:25:18.007Z,8.45
2022-11-25T06:26:17.946Z,8.45
2022-11-25T06:27:18.112Z,8.44
2022-11-25T06:28:18.061Z,8.44
2022-11-25T06:29:17.910Z,8.42
2022-11-25T06:30:17.978Z,8.42
2022-11-25T06:31:18.019Z,8.39
2022-11-25T06:32:17.913Z,8.36
2022-11-25T06:33:17.853Z,8.37
2022-11-25T06:34:17.893Z,8.36
2022-11-25T06:35:17.954Z,8.36
2022-11-25T06:36:17.871Z,8.35
2022-11-25T06:37:17.853Z,8.36
2022-11-25T06:38:17.811Z,8.35
2022-11-25T06:39:17.870Z,8.32
2022-11-25T06:40:17.778Z,8.35
2022-11-25T06:41:18.228Z,8.33
2022-11-25T06:42:17.831Z,8.36
2022-11-25T06:43:17.977Z,8.35
2022-11-25T06:44:17.830Z,8.35
2022-11-25T06:45:17.995Z,8.36
2022-11-25T06:46:24.144Z,8.33
2022-11-25T06:47:17.737Z,8.33
2022-11-25T06:48:17.953Z,8.32
2022-11-25T06:49:17.825Z,8.30
2022-11-25T06:50:17.953Z,8.29
2022-11-25T06:51:17.821Z,8.26
2022-11-25T06:52:17.717Z,8.25
2022-11-25T06:53:22.686Z,8.22
2022-11-25T06:54:17.653Z,8.22
2022-11-25T06:55:17.625Z,8.20
2022-11-25T06:56:17.634Z,8.18
2022-11-25T06:57:17.630Z,8.18
2022-11-25T06:58:34.826Z,8.15
2022-11-25T06:59:17.640Z,8.15
2022-11-25T07:00:17.872Z,8.17
2022-11-25T07:01:17.734Z,8.17
2022-11-25T07:02:17.646Z,8.17
2022-11-25T07:03:17.800Z,8.20
2022-11-25T07:04:17.792Z,8.18
2022-11-25T07:05:17.710Z,8.21
2022-11-25T07:06:17.661Z,8.22
2022-11-25T07:07:17.816Z,8.22
2022-11-25T07:08:17.783Z,8.26
2022-11-25T07:09:17.511Z,8.26
2022-11-25T07:10:17.586Z,8.28
2022-11-25T07:11:17.484Z,8.29
2022-11-25T07:12:17.478Z,8.29
2022-11-25T07:13:17.471Z,8.30
2022-11-25T07:14:17.563Z,8.32
2022-11-25T07:15:17.459Z,8.30
2022-11-25T07:16:17.487Z,8.32
2022-11-25T07:17:17.527Z,8.33
2022-11-25T07:18:17.632Z,8.32
2022-11-25T07:19:17.517Z,8.33
2022-11-25T07:20:17.406Z,8.33
2022-11-25T07:21:17.412Z,8.35
2022-11-25T07:22:17.421Z,8.35
2022-11-25T07:23:17.412Z,8.36
2022-11-25T07:24:17.520Z,8.37
2022-11-25T07:25:17.365Z,8.37
2022-11-25T07:26:17.433Z,8.36
2022-11-25T07:27:17.448Z,8.36
2022-11-25T07:28:17.507Z,8.39
2022-11-25T07:29:44.284Z,8.37
2022-11-25T07:31:28.685Z,8.39
2022-11-25T07:32:17.465Z,8.37
2022-11-25T07:33:17.686Z,8.37
2022-11-25T07:34:17.395Z,8.37
2022-11-25T07:35:17.476Z,8.36
2022-11-25T07:36:17.478Z,8.33
2022-11-25T07:37:17.618Z,8.33
2022-11-25T07:38:17.251Z,8.30
2022-11-25T07:39:17.445Z,8.29
2022-11-25T07:40:17.450Z,8.26
2022-11-25T07:41:17.226Z,8.22
2022-11-25T07:42:17.221Z,8.21
2022-11-25T07:43:17.221Z,8.18
2022-11-25T07:44:17.250Z,8.15
2022-11-25T07:45:17.171Z,8.14
2022-11-25T07:46:19.828Z,8.10
2022-11-25T07:47:17.238Z,8.10
2022-11-25T07:48:17.160Z,8.10
2022-11-25T07:49:17.285Z,8.10
2022-11-25T07:50:17.140Z,8.11
2022-11-25T07:51:17.156Z,8.12
2022-11-25T07:52:17.331Z,8.14
2022-11-25T07:53:17.100Z,8.15
2022-11-25T07:54:17.093Z,8.15
2022-11-25T07:55:17.276Z,8.14
2022-11-25T07:56:17.094Z,8.15
2022-11-25T07:57:17.152Z,8.14
2022-11-25T07:58:17.050Z,8.15
2022-11-25T07:59:17.202Z,8.15
2022-11-25T08:00:17.254Z,8.17
2022-11-25T08:01:17.069Z,8.18
2022-11-25T08:02:17.024Z,8.18
2022-11-25T08:03:17.113Z,8.18
2022-11-25T08:04:20.511Z,8.20
2022-11-25T08:05:17.171Z,8.20
2022-11-25T08:06:17.153Z,8.20
2022-11-25T08:07:17.273Z,8.20
2022-11-25T08:08:17.298Z,8.20
2022-11-25T08:09:17.030Z,8.20
2022-11-25T08:10:16.943Z,8.20
2022-11-25T08:11:17.121Z,8.17
2022-11-25T08:12:16.943Z,8.17
2022-11-25T08:13:16.991Z,8.15
2022-11-25T08:14:16.868Z,8.17
2022-11-25T08:15:16.874Z,8.20
2022-11-25T08:16:17.029Z,8.25
2022-11-25T08:17:16.957Z,8.28
2022-11-25T08:18:16.895Z,8.33
2022-11-25T08:19:16.811Z,8.36
2022-11-25T08:20:17.008Z,8.42
2022-11-25T08:21:16.910Z,8.45
2022-11-25T08:22:16.869Z,8.51
2022-11-25T08:23:16.900Z,8.57
2022-11-25T08:24:16.795Z,8.62
2022-11-25T08:25:16.807Z,8.66
2022-11-25T08:26:17.832Z,8.68
2022-11-25T08:27:17.017Z,8.68
2022-11-25T08:28:16.880Z,8.68
2022-11-25T08:29:16.708Z,8.68
2022-11-25T08:30:16.757Z,8.66
2022-11-25T08:31:16.810Z,8.63
2022-11-25T08:32:16.689Z,8.57
2022-11-25T08:33:16.918Z,8.54
2022-11-25T08:34:16.752Z,8.54
2022-11-25T08:35:16.680Z,8.53
2022-11-25T08:36:16.723Z,8.48
2022-11-25T08:37:16.988Z,8.48
2022-11-25T08:38:16.887Z,8.47
2022-11-25T08:39:44.307Z,8.50
2022-11-25T08:40:16.838Z,8.51
2022-11-25T08:41:16.618Z,8.54
2022-11-25T08:42:16.853Z,8.53
2022-11-25T08:43:16.833Z,8.57
2022-11-25T08:44:16.666Z,8.57
2022-11-25T08:45:16.739Z,8.58
2022-11-25T08:46:16.600Z,8.60
2022-11-25T08:47:16.540Z,8.62
2022-11-25T08:48:16.558Z,8.63
2022-11-25T08:49:16.646Z,8.66
2022-11-25T08:50:16.515Z,8.68
2022-11-25T08:51:16.473Z,8.71
2022-11-25T08:52:16.479Z,8.69
2022-11-25T08:53:16.528Z,8.71
2022-11-25T08:54:16.646Z,8.71
2022-11-25T08:55:16.506Z,8.68
2022-11-25T08:56:19.301Z,8.69
2022-11-25T08:57:16.770Z,8.71
2022-11-25T08:58:16.481Z,8.73
2022-11-25T08:59:16.637Z,8.72
2022-11-25T09:00:16.694Z,8.73
2022-11-25T09:01:16.538Z,8.72
2022-11-25T09:02:16.671Z,8.73
2022-11-25T09:03:16.675Z,8.75
2022-11-25T09:04:16.721Z,8.75
2022-11-25T09:05:16.347Z,8.76
2022-11-25T09:06:16.586Z,8.78
2022-11-25T09:07:16.503Z,8.79
2022-11-25T09:08:16.451Z,8.78
2022-11-25T09:09:16.466Z,8.81
2022-11-25T09:10:16.406Z,8.83
2022-11-25T09:11:16.561Z,8.84
2022-11-25T09:12:16.526Z,8.87
2022-11-25T09:13:16.259Z,8.88
2022-11-25T09:14:16.289Z,8.88
2022-11-25T09:15:16.247Z,8.94
2022-11-25T09:16:16.323Z,8.96
2022-11-25T09:17:16.255Z,8.99
2022-11-25T09:18:16.419Z,8.99
2022-11-25T09:19:16.229Z,8.99
2022-11-25T09:20:16.220Z,9.01
2022-11-25T09:21:16.226Z,9.02
2022-11-25T09:22:16.188Z,9.02
2022-11-25T09:23:16.216Z,9.04
2022-11-25T09:24:16.694Z,9.04
2022-11-25T09:25:16.149Z,9.09
2022-11-25T09:26:16.142Z,9.09
2022-11-25T09:27:16.323Z,9.12
2022-11-25T09:28:16.186Z,9.15
2022-11-25T09:29:16.119Z,9.16
2022-11-25T09:30:16.482Z,9.23
2022-11-25T09:31:16.145Z,9.27
2022-11-25T09:32:16.303Z,9.31
2022-11-25T09:33:16.259Z,9.39
2022-11-25T09:34:16.365Z,9.46
2022-11-25T09:35:16.109Z,9.43
2022-11-25T09:36:16.188Z,9.45
2022-11-25T09:37:16.132Z,9.43
2022-11-25T09:38:16.131Z,9.43
2022-11-25T09:39:15.978Z,9.46
2022-11-25T09:40:16.057Z,9.49
2022-11-25T09:41:16.005Z,9.52
2022-11-25T09:42:16.033Z,9.56
2022-11-25T09:43:16.372Z,9.56
2022-11-25T09:44:16.052Z,9.56
2022-11-25T09:45:16.052Z,9.52
2022-11-25T09:46:16.032Z,9.53
2022-11-25T09:47:16.752Z,9.66
2022-11-25T09:48:15.978Z,9.76
2022-11-25T09:49:15.910Z,9.79
2022-11-25T09:50:16.044Z,9.85
2022-11-25T09:51:15.925Z,9.86
2022-11-25T09:52:15.988Z,9.91
2022-11-25T09:53:15.971Z,9.93
2022-11-25T09:54:15.893Z,9.94
2022-11-25T09:55:16.117Z,9.96
2022-11-25T09:56:16.123Z,9.96
2022-11-25T09:57:15.930Z,9.97
2022-11-25T09:58:15.962Z,10.01
2022-11-25T09:59:15.808Z,10.04
2022-11-25T10:00:15.816Z,10.07
2022-11-25T10:01:15.777Z,10.12
2022-11-25T10:02:15.859Z,10.12
2022-11-25T10:03:15.982Z,10.17
2022-11-25T10:04:15.877Z,10.22
2022-11-25T10:05:15.841Z,10.26
2022-11-25T10:06:16.172Z,10.37
2022-11-25T10:07:15.720Z,10.40
2022-11-25T10:08:15.714Z,10.34
2022-11-25T10:09:15.855Z,10.30
2022-11-25T10:10:15.691Z,10.25
2022-11-25T10:11:15.696Z,10.25
2022-11-25T10:12:15.855Z,10.22
2022-11-25T10:13:15.671Z,10.22
2022-11-25T10:14:15.659Z,10.24
2022-11-25T10:15:15.719Z,10.21
2022-11-25T10:16:15.722Z,10.22
2022-11-25T10:17:15.661Z,10.32
2022-11-25T10:18:15.768Z,10.40
2022-11-25T10:19:15.957Z,10.51
2022-11-25T10:20:15.572Z,10.58
2022-11-25T10:21:15.605Z,10.62
2022-11-25T10:22:15.778Z,10.68
2022-11-25T10:23:15.720Z,10.74
2022-11-25T10:24:15.809Z,10.77
2022-11-25T10:25:15.685Z,10.89
2022-11-25T10:26:15.583Z,11.03
2022-11-25T10:27:15.876Z,11.13
2022-11-25T10:28:15.479Z,11.13
2022-11-25T10:29:15.577Z,11.16
2022-11-25T10:30:15.493Z,11.20
2022-11-25T10:31:15.636Z,11.38
2022-11-25T10:32:15.487Z,11.67
2022-11-25T10:33:15.633Z,11.97
2022-11-25T10:34:15.560Z,12.24
2022-11-25T10:35:16.013Z,12.48
2022-11-25T10:36:15.847Z,12.70
2022-11-25T10:37:15.604Z,12.93
2022-11-25T10:38:19.035Z,13.11
2022-11-25T10:39:15.594Z,13.27
2022-11-25T10:40:15.587Z,13.12
2022-11-25T10:41:15.389Z,13.18
2022-11-25T10:42:15.468Z,13.14
2022-11-25T10:43:15.563Z,13.12
2022-11-25T10:44:15.800Z,13.00
2022-11-25T10:45:15.334Z,13.11
2022-11-25T10:46:15.741Z,13.14
2022-11-25T10:47:15.689Z,13.18
2022-11-25T10:48:15.350Z,13.18
2022-11-25T10:49:15.274Z,13.14
2022-11-25T10:50:15.437Z,13.09
2022-11-25T10:51:15.430Z,13.20
2022-11-25T10:52:15.271Z,13.37
2022-11-25T10:53:15.283Z,13.40
2022-11-25T10:54:15.404Z,13.46
2022-11-25T10:55:15.797Z,13.58
2022-11-25T10:56:15.226Z,13.74
2022-11-25T10:57:15.366Z,13.92
2022-11-25T10:58:15.198Z,14.09
2022-11-25T10:59:15.204Z,14.38
2022-11-25T11:00:17.529Z,14.62
2022-11-25T11:01:15.519Z,14.67
2022-11-25T11:02:15.325Z,14.50
2022-11-25T11:03:15.267Z,14.32
2022-11-25T11:04:15.534Z,14.10
2022-11-25T11:05:15.359Z,14.10
2022-11-25T11:06:15.271Z,14.14
2022-11-25T11:07:15.324Z,14.24
2022-11-25T11:08:15.100Z,14.10
2022-11-25T11:09:15.130Z,13.84
2022-11-25T11:10:15.085Z,13.67
2022-11-25T11:11:15.258Z,13.29
2022-11-25T11:12:15.075Z,13.02
2022-11-25T11:13:15.024Z,12.79
2022-11-25T11:14:15.030Z,13.02
2022-11-25T11:15:15.066Z,12.95
2022-11-25T11:16:15.125Z,12.78
2022-11-25T11:18:42.696Z,12.64
2022-11-25T11:18:47.652Z,12.54
2022-11-25T11:19:47.582Z,12.39
2022-11-25T11:20:47.601Z,12.38
2022-11-25T11:21:47.533Z,12.33
2022-11-25T11:22:47.556Z,12.56
2022-11-25T11:23:47.812Z,12.84
2022-11-25T11:24:47.696Z,13.20
2022-11-25T11:25:47.690Z,13.20
2022-11-25T11:26:47.669Z,13.38
2022-11-25T11:27:47.732Z,13.70
2022-11-25T11:28:47.486Z,14.02
2022-11-25T11:29:47.652Z,14.01
2022-11-25T11:30:47.503Z,14.13
2022-11-25T11:31:47.789Z,14.04
2022-11-25T11:32:47.659Z,13.99
2022-11-25T11:33:47.450Z,14.21
2022-11-25T11:34:47.563Z,14.62
2022-11-25T11:35:47.484Z,15.01
2022-11-25T11:36:47.369Z,15.30
2022-11-25T11:37:47.625Z,15.28
2022-11-25T11:38:47.487Z,14.93
2022-11-25T11:39:47.484Z,14.31
2022-11-25T11:40:47.406Z,13.96
2022-11-25T11:41:47.548Z,13.88
2022-11-25T11:42:47.446Z,13.67
2022-11-25T11:43:47.627Z,13.89
2022-11-25T11:44:47.336Z,14.14
2022-11-25T11:45:47.316Z,13.95
2022-11-25T11:46:47.404Z,13.77
2022-11-25T11:47:47.327Z,13.89
2022-11-25T11:48:51.544Z,13.84
2022-11-25T11:49:47.295Z,13.54
2022-11-25T11:50:47.256Z,13.69
2022-11-25T11:51:47.478Z,13.74
2022-11-25T11:52:47.407Z,13.59
2022-11-25T11:53:47.233Z,13.62
2022-11-25T11:54:47.448Z,13.79
2022-11-25T11:56:00.284Z,14.09
2022-11-25T11:56:52.043Z,13.98
2022-11-25T11:57:47.222Z,14.02
2022-11-25T11:58:47.241Z,13.95
2022-11-25T11:59:47.195Z,13.67
2022-11-25T12:00:47.305Z,13.33
2022-11-25T12:01:47.537Z,13.09
2022-11-25T12:02:47.202Z,12.99
2022-11-25T12:03:52.961Z,12.74
2022-11-25T12:04:47.135Z,12.56
2022-11-25T12:05:47.128Z,12.89
2022-11-25T12:06:47.233Z,13.27
2022-11-25T12:07:47.186Z,13.49
2022-11-25T12:08:47.059Z,13.46
2022-11-25T12:09:47.055Z,13.41
2022-11-25T12:10:47.050Z,13.65
2022-11-25T12:11:47.079Z,13.52
2022-11-25T12:12:47.022Z,13.40
2022-11-25T12:13:47.028Z,13.38
2022-11-25T12:14:47.020Z,13.30
2022-11-25T12:15:47.203Z,13.24
2022-11-25T12:16:47.075Z,13.21
2022-11-25T12:17:47.039Z,13.18
2022-11-25T12:18:47.020Z,13.20
2022-11-25T12:19:47.000Z,13.17
2022-11-25T12:20:47.110Z,13.09
2022-11-25T12:21:46.982Z,13.06
2022-11-25T12:22:47.041Z,13.06
2022-11-25T12:23:47.117Z,13.03
2022-11-25T12:24:47.071Z,13.03
2022-11-25T12:25:46.990Z,13.06
2022-11-25T12:26:46.919Z,13.06
2022-11-25T12:27:46.941Z,13.00
2022-11-25T12:28:46.861Z,12.99
2022-11-25T12:29:47.228Z,13.03
2022-11-25T12:30:46.860Z,12.97
2022-11-25T12:31:47.083Z,12.93
2022-11-25T12:32:46.867Z,12.84
2022-11-25T12:33:46.881Z,12.71
2022-11-25T12:34:46.847Z,12.64
2022-11-25T12:35:47.150Z,12.56
2022-11-25T12:36:46.857Z,12.54
2022-11-25T12:37:46.811Z,12.52
2022-11-25T12:38:46.994Z,12.45
2022-11-25T12:39:46.829Z,12.39
2022-11-25T12:40:46.731Z,12.31
2022-11-25T12:41:46.965Z,12.29
2022-11-25T12:42:46.769Z,12.27
2022-11-25T12:43:46.855Z,12.31
2022-11-25T12:44:46.863Z,12.31
2022-11-25T12:45:46.894Z,12.30
2022-11-25T12:46:46.793Z,12.29
2022-11-25T12:47:46.961Z,12.30
2022-11-25T12:48:46.693Z,12.31
2022-11-25T12:49:46.756Z,12.33
2022-11-25T12:50:46.632Z,12.33
2022-11-25T12:51:46.736Z,12.27
2022-11-25T12:52:46.662Z,12.26
2022-11-25T12:53:46.882Z,12.23
2022-11-25T12:54:46.640Z,12.20
2022-11-25T12:55:46.720Z,12.19
2022-11-25T12:56:46.655Z,12.19
2022-11-25T12:57:49.188Z,12.23
2022-11-25T12:58:47.000Z,12.24
2022-11-25T12:59:46.780Z,12.21
2022-11-25T13:00:46.620Z,12.24
2022-11-25T13:01:46.976Z,12.30
2022-11-25T13:02:46.643Z,12.34
2022-11-25T13:03:46.579Z,12.37
2022-11-25T13:04:46.546Z,12.37
2022-11-25T13:05:46.527Z,12.34
2022-11-25T13:06:46.621Z,12.37
2022-11-25T13:07:46.596Z,12.30
2022-11-25T13:08:46.514Z,12.26
2022-11-25T13:09:46.423Z,12.29
2022-11-25T13:10:46.556Z,12.30
2022-11-25T13:11:46.787Z,12.34
2022-11-25T13:12:47.117Z,12.39